Time;durP1;ratioP1;P1;durP2;ratioP2;P2;SDS_P1;SDS_P2;PMS_P1;PMS_P2;Temp;Humidity;BMP_temperature;BMP_pressure;BME280_temperature;BME280_humidity;BME280_pressure;Samples;Min_cycle;Max_cycle;Signal;HPM_P1;HPM_P2
2022/11/10 00:01:42;;;;;;;;;;;;;;;12.64;79.57;100742.44;5337374;32;34421;-76
2022/11/10 00:04:44;;;;;;;;;;;;;;;12.40;79.72;100740.81;5360947;32;35023;-76
2022/11/10 00:07:46;;;;;;;;;;;;;;;12.64;78.84;100744.22;5352749;32;34871;-76
2022/11/10 00:10:56;;;;;;;;;;;;;;;12.08;80.23;100758.75;5349752;32;34774;-69
2022/11/10 00:17:19;;;;;;;;;;;;;;;12.47;79.50;100764.19;5345745;32;35208;-76
2022/11/10 00:20:20;;;;;;;;;;;;;;;11.52;82.92;100772.25;5354597;32;36378;-76
2022/11/10 00:23:23;;;;;;;;;;;;;;;12.03;82.31;100773.03;5332613;32;34809;-69
2022/11/10 00:26:25;;;;;;;;;;;;;;;12.11;82.00;100769.19;5351389;32;34296;-69
2022/11/10 00:29:27;;;;;;;;;;;;;;;11.76;82.50;100775.78;5369318;32;35077;-70
2022/11/10 00:32:29;;;;;;;;;;;;;;;12.27;81.60;100781.75;5343023;32;34740;-69
2022/11/10 00:35:31;;;;;;;;;;;;;;;12.87;78.35;100765.16;5360804;32;36506;-76
2022/11/10 00:38:32;;;;;;;;;;;;;;;11.97;80.61;100775.91;5349719;32;34409;-76
2022/11/10 00:41:34;;;;;;;;;;;;;;;11.77;82.61;100776.63;5359095;32;35610;-77
2022/11/10 00:44:36;;;;;;;;;;;;;;;12.26;81.73;100767.72;5334017;32;45151;-70
2022/11/10 00:47:38;;;;;;;;;;;;;;;12.34;80.20;100773.53;5305933;32;36019;-75
2022/11/10 00:50:40;;;;;;;;;;;;;;;12.09;81.70;100783.31;5366122;32;35539;-69
2022/11/10 00:53:42;;;;;;;;;;;;;;;11.91;83.23;100785.78;5351242;32;35282;-70
2022/11/10 00:56:44;;;;;;;;;;;;;;;11.98;83.81;100783.75;5364205;32;35662;-69
2022/11/10 00:59:46;;;;;;;;;;;;;;;11.53;86.47;100775.78;5337784;32;34311;-76
2022/11/10 01:02:47;;;;;;;;;;;;;;;12.45;82.37;100771.31;5349731;32;34326;-69
2022/11/10 01:05:49;;;;;;;;;;;;;;;12.84;78.45;100777.66;5353595;32;35758;-75
2022/11/10 01:08:51;;;;;;;;;;;;;;;12.59;78.85;100767.25;5347869;32;35489;-69
2022/11/10 01:11:53;;;;;;;;;;;;;;;11.65;83.65;100776.16;5365969;32;34688;-69
2022/11/10 01:14:55;;;;;;;;;;;;;;;12.21;82.03;100777.56;5346555;32;35509;-76
2022/11/10 01:17:57;;;;;;;;;;;;;;;12.35;82.20;100763.84;5363126;32;35039;-69
2022/11/10 01:20:59;;;;;;;;;;;;;;;11.97;84.17;100762.72;5348401;32;35893;-73
2022/11/10 01:24:01;;;;;;;;;;;;;;;12.14;83.85;100768.19;5347470;32;37044;-69
2022/11/10 01:27:03;;;;;;;;;;;;;;;12.98;80.32;100756.81;5351797;32;35719;-75
2022/11/10 01:30:05;;;;;;;;;;;;;;;12.61;81.63;100760.13;5348765;32;35725;-77
2022/11/10 01:33:07;;;;;;;;;;;;;;;12.13;83.92;100769.97;5358455;32;46439;-69
2022/11/10 01:36:09;;;;;;;;;;;;;;;12.58;80.82;100770.81;5347553;32;35242;-75
2022/11/10 01:39:11;;;;;;;;;;;;;;;12.44;80.16;100768.75;5352306;32;34998;-68
2022/11/10 01:42:13;;;;;;;;;;;;;;;12.83;79.63;100760.97;5351758;32;35054;-69
2022/11/10 01:45:21;;;;;;;;;;;;;;;12.57;79.96;100772.59;5361010;32;34972;-77
2022/11/10 01:48:43;;;;;;;;;;;;;;;12.76;80.17;100759.53;5336512;32;36568;-70
2022/11/10 01:51:58;;;;;;;;;;;;;;;13.27;77.37;100764.34;5326687;32;44555;-69
2022/11/10 01:55:00;;;;;;;;;;;;;;;12.77;78.96;100763.88;5359939;32;34896;-69
2022/11/10 01:58:02;;;;;;;;;;;;;;;12.72;80.49;100760.56;5335977;32;35277;-69
2022/11/10 02:01:05;;;;;;;;;;;;;;;12.66;79.20;100768.72;5353330;32;35493;-69
2022/11/10 02:04:09;;;;;;;;;;;;;;;12.84;76.37;100762.69;5349060;32;45189;-76
2022/11/10 02:07:11;;;;;;;;;;;;;;;13.00;76.66;100758.44;5335897;32;34805;-73
2022/11/10 02:10:14;;;;;;;;;;;;;;;12.41;79.56;100771.50;5368934;32;34893;-76
2022/11/10 02:13:16;;;;;;;;;;;;;;;13.06;76.72;100773.16;5337163;32;35254;-76
2022/11/10 02:16:18;;;;;;;;;;;;;;;12.84;77.45;100781.16;5362158;32;34910;-70
2022/11/10 02:19:24;;;;;;;;;;;;;;;13.31;75.98;100774.78;5351003;32;35097;-77
2022/11/10 02:22:25;;;;;;;;;;;;;;;12.74;76.83;100779.81;5363368;32;34148;-70
2022/11/10 02:25:28;;;;;;;;;;;;;;;12.73;78.65;100775.44;5352921;32;35133;-70
2022/11/10 02:28:34;;;;;;;;;;;;;;;12.79;78.02;100788.38;5334603;32;34355;-70
2022/11/10 02:31:36;;;;;;;;;;;;;;;12.78;78.60;100784.03;5364519;32;34971;-76
2022/11/10 02:34:37;;;;;;;;;;;;;;;13.29;75.65;100788.03;5332462;32;45200;-70
2022/11/10 02:37:39;;;;;;;;;;;;;;;12.90;77.14;100793.22;5359129;32;35051;-69
2022/11/10 02:40:41;;;;;;;;;;;;;;;12.72;78.06;100790.41;5355119;32;35009;-70
2022/11/10 02:43:43;;;;;;;;;;;;;;;13.60;75.01;100795.47;5354788;32;34461;-69
2022/11/10 02:46:45;;;;;;;;;;;;;;;12.89;77.26;100802.06;5334359;32;37543;-77
2022/11/10 02:49:46;;;;;;;;;;;;;;;12.92;77.32;100802.78;5345968;32;35199;-76
2022/11/10 02:52:48;;;;;;;;;;;;;;;12.64;77.27;100796.94;5362182;32;34968;-69
2022/11/10 02:55:50;;;;;;;;;;;;;;;12.86;77.63;100799.53;5323743;32;35077;-75
2022/11/10 02:58:52;;;;;;;;;;;;;;;13.39;75.22;100799.91;5364919;32;34031;-71
2022/11/10 03:01:54;;;;;;;;;;;;;;;13.31;74.54;100798.53;5331370;32;34477;-75
2022/11/10 03:04:56;;;;;;;;;;;;;;;13.64;73.45;100812.00;5355962;32;34364;-70
2022/11/10 03:07:59;;;;;;;;;;;;;;;13.31;75.26;100803.81;5353438;32;34236;-77
2022/11/10 03:11:01;;;;;;;;;;;;;;;13.30;75.96;100815.28;5353915;32;36500;-76
2022/11/10 03:14:02;;;;;;;;;;;;;;;13.75;73.26;100815.88;5368628;32;34646;-69
2022/11/10 03:17:04;;;;;;;;;;;;;;;13.23;75.26;100830.53;5345081;32;34243;-76
2022/11/10 03:20:06;;;;;;;;;;;;;;;12.68;77.05;100831.00;5364669;32;45217;-76
2022/11/10 03:23:08;;;;;;;;;;;;;;;13.45;74.92;100823.37;5335248;32;35472;-77
2022/11/10 03:26:10;;;;;;;;;;;;;;;13.84;72.66;100827.81;5358574;32;34586;-69
2022/11/10 03:29:12;;;;;;;;;;;;;;;13.47;73.73;100825.97;5356649;32;35401;-76
2022/11/10 03:32:14;;;;;;;;;;;;;;;13.69;73.19;100831.16;5349982;32;34486;-69
2022/11/10 03:35:15;;;;;;;;;;;;;;;13.36;74.90;100829.09;5362497;32;34495;-70
2022/11/10 03:38:17;;;;;;;;;;;;;;;12.94;76.28;100832.59;5345907;32;34971;-69
2022/11/10 03:41:19;;;;;;;;;;;;;;;13.44;74.75;100832.25;5366302;32;34249;-69
2022/11/10 03:44:21;;;;;;;;;;;;;;;13.21;75.32;100837.69;5351049;32;34721;-70
2022/11/10 03:47:23;;;;;;;;;;;;;;;13.02;75.71;100837.56;5337321;32;35162;-77
2022/11/10 03:50:25;;;;;;;;;;;;;;;13.49;74.36;100832.03;5343926;32;35035;-70
2022/11/10 03:53:27;;;;;;;;;;;;;;;13.63;73.22;100834.94;5345212;32;34673;-77
2022/11/10 03:56:29;;;;;;;;;;;;;;;13.19;74.25;100836.84;5342943;32;35698;-77
2022/11/10 03:59:31;;;;;;;;;;;;;;;13.76;71.61;100841.38;5348275;32;34868;-70
2022/11/10 04:02:32;;;;;;;;;;;;;;;14.24;69.35;100839.19;5366694;32;35241;-70
2022/11/10 04:08:58;;;;;;;;;;;;;;;13.57;71.21;100843.13;5349984;32;34311;-69
2022/11/10 04:15:43;;;;;;;;;;;;;;;12.70;75.80;100862.62;5341441;32;34713;-75
2022/11/10 04:18:45;;;;;;;;;;;;;;;13.50;73.06;100862.81;5361322;32;45318;-68
2022/11/10 04:21:47;;;;;;;;;;;;;;;13.30;73.59;100863.66;5349862;32;35362;-70
2022/11/10 04:24:49;;;;;;;;;;;;;;;13.53;72.91;100857.41;5349016;32;34197;-74
2022/11/10 04:27:51;;;;;;;;;;;;;;;13.63;71.70;100863.97;5331732;32;34589;-69
2022/11/10 04:30:53;;;;;;;;;;;;;;;13.72;71.21;100863.59;5332346;32;35280;-76
2022/11/10 04:33:55;;;;;;;;;;;;;;;13.34;73.70;100874.97;5342104;32;34353;-75
2022/11/10 04:36:57;;;;;;;;;;;;;;;12.96;74.96;100864.19;5342095;32;35468;-69
2022/11/10 04:39:58;;;;;;;;;;;;;;;13.33;73.90;100874.09;5367833;32;34949;-70
2022/11/10 04:43:00;;;;;;;;;;;;;;;12.80;75.34;100882.41;5335233;32;35977;-70
2022/11/10 04:46:03;;;;;;;;;;;;;;;12.03;78.48;100875.75;5341910;32;34497;-70
2022/11/10 04:49:05;;;;;;;;;;;;;;;12.66;76.61;100879.47;5347948;32;34529;-69
2022/11/10 04:52:07;;;;;;;;;;;;;;;12.80;74.95;100874.50;5349251;32;46897;-69
2022/11/10 04:55:09;;;;;;;;;;;;;;;12.37;77.59;100876.22;5361104;32;35698;-69
2022/11/10 04:58:11;;;;;;;;;;;;;;;12.70;76.35;100881.94;5344876;32;34789;-76
2022/11/10 05:01:14;;;;;;;;;;;;;;;13.00;75.29;100885.09;5357444;32;34568;-76
2022/11/10 05:04:16;;;;;;;;;;;;;;;13.35;72.56;100880.16;5339353;32;35239;-69
2022/11/10 05:07:17;;;;;;;;;;;;;;;12.99;74.18;100903.62;5348105;32;34749;-77
2022/11/10 05:10:19;;;;;;;;;;;;;;;12.93;72.69;100910.03;5365803;32;34265;-76
2022/11/10 05:13:21;;;;;;;;;;;;;;;13.47;71.75;100911.34;5351780;32;34973;-69
2022/11/10 05:16:24;;;;;;;;;;;;;;;12.70;74.25;100918.00;5359237;32;34993;-69
2022/11/10 05:19:26;;;;;;;;;;;;;;;13.16;73.47;100914.38;5349073;32;35514;-76
2022/11/10 05:22:27;;;;;;;;;;;;;;;13.38;71.79;100911.72;5365824;32;35188;-69
2022/11/10 05:25:29;;;;;;;;;;;;;;;12.98;73.39;100921.25;5352865;32;35716;-77
2022/11/10 05:28:31;;;;;;;;;;;;;;;12.92;73.49;100925.91;5333627;32;34972;-69
2022/11/10 05:31:33;;;;;;;;;;;;;;;13.09;73.64;100926.09;5368008;32;34374;-76
2022/11/10 05:34:35;;;;;;;;;;;;;;;13.05;73.05;100931.56;5348564;32;34832;-70
2022/11/10 05:37:38;;;;;;;;;;;;;;;12.74;73.49;100931.00;5363393;32;45062;-69
2022/11/10 05:40:40;;;;;;;;;;;;;;;12.99;73.83;100935.31;5340551;32;34808;-77
2022/11/10 05:43:42;;;;;;;;;;;;;;;13.21;72.87;100945.91;5367728;32;35524;-70
2022/11/10 05:46:44;;;;;;;;;;;;;;;13.45;71.21;100947.50;5335486;32;35798;-77
2022/11/10 05:49:45;;;;;;;;;;;;;;;13.17;71.97;100955.66;5338827;32;35282;-77
2022/11/10 05:52:48;;;;;;;;;;;;;;;13.20;72.22;100958.22;5364958;32;34315;-76
2022/11/10 05:55:51;;;;;;;;;;;;;;;12.56;75.10;100960.75;5349497;32;35756;-78
2022/11/10 05:58:53;;;;;;;;;;;;;;;13.53;70.69;100961.25;5351401;32;34414;-70
2022/11/10 06:01:54;;;;;;;;;;;;;;;13.17;70.73;100971.50;5352706;32;35455;-73
2022/11/10 06:04:56;;;;;;;;;;;;;;;13.19;71.90;100968.78;5365694;32;34518;-75
2022/11/10 06:07:58;;;;;;;;;;;;;;;13.17;70.49;100978.56;5346731;32;34658;-69
2022/11/10 06:11:00;;;;;;;;;;;;;;;12.84;72.68;100981.63;5350753;32;34367;-70
2022/11/10 06:14:03;;;;;;;;;;;;;;;13.29;70.79;100988.66;5361303;32;34782;-75
2022/11/10 06:17:05;;;;;;;;;;;;;;;13.41;70.32;100998.72;5329821;32;35040;-70
2022/11/10 06:20:07;;;;;;;;;;;;;;;13.67;68.50;101002.94;5361924;32;46162;-76
2022/11/10 06:23:09;;;;;;;;;;;;;;;13.32;69.40;101008.78;5347700;32;35046;-70
2022/11/10 06:26:11;;;;;;;;;;;;;;;13.59;69.22;101004.16;5362938;32;35615;-77
2022/11/10 06:29:13;;;;;;;;;;;;;;;13.72;68.25;101022.09;5348112;32;34721;-77
2022/11/10 06:32:15;;;;;;;;;;;;;;;13.20;70.46;101021.59;5348845;32;35466;-77
2022/11/10 06:35:17;;;;;;;;;;;;;;;13.71;67.97;101027.41;5359365;32;34168;-78
2022/11/10 06:38:19;;;;;;;;;;;;;;;13.42;69.48;101026.84;5323501;32;35255;-77
2022/11/10 06:41:21;;;;;;;;;;;;;;;13.44;68.41;101027.63;5359855;32;34228;-78
2022/11/10 06:44:26;;;;;;;;;;;;;;;12.83;70.41;101034.44;5350833;32;36424;-71
2022/11/10 06:47:28;;;;;;;;;;;;;;;13.36;69.59;101034.16;5337894;32;34599;-69
2022/11/10 06:50:30;;;;;;;;;;;;;;;12.81;70.14;101031.84;5350870;32;35487;-72
2022/11/10 06:53:32;;;;;;;;;;;;;;;13.41;69.58;101043.63;5346456;32;35037;-72
2022/11/10 06:56:35;;;;;;;;;;;;;;;13.48;67.84;101045.09;5356855;32;35515;-70
2022/11/10 06:59:37;;;;;;;;;;;;;;;14.13;65.13;101052.94;5346702;32;44512;-74
2022/11/10 07:02:39;;;;;;;;;;;;;;;14.00;66.05;101061.41;5357381;32;34289;-70
2022/11/10 07:05:41;;;;;;;;;;;;;;;14.34;64.58;101055.50;5337525;32;35596;-70
2022/11/10 07:08:43;;;;;;;;;;;;;;;13.81;66.55;101063.97;5353378;32;34342;-75
2022/11/10 07:11:45;;;;;;;;;;;;;;;13.49;67.36;101078.47;5348233;32;34511;-71
2022/11/10 07:14:46;;;;;;;;;;;;;;;13.78;67.39;101073.78;5347717;32;34382;-70
2022/11/10 07:17:48;;;;;;;;;;;;;;;13.21;68.24;101084.00;5352379;32;34774;-70
2022/11/10 07:20:50;;;;;;;;;;;;;;;13.65;67.09;101083.12;5344759;32;35059;-66
2022/11/10 07:23:53;;;;;;;;;;;;;;;13.44;68.06;101093.66;5335457;32;34495;-78
2022/11/10 07:26:56;;;;;;;;;;;;;;;13.02;69.60;101090.87;5350504;32;34086;-72
2022/11/10 07:29:58;;;;;;;;;;;;;;;13.70;67.18;101089.09;5355485;32;35684;-68
2022/11/10 07:33:00;;;;;;;;;;;;;;;12.97;68.84;101095.47;5351768;32;35734;-69
2022/11/10 07:36:03;;;;;;;;;;;;;;;13.14;68.90;101095.69;5346061;32;35967;-68
2022/11/10 07:39:05;;;;;;;;;;;;;;;13.55;67.18;101099.38;5357112;32;34288;-68
2022/11/10 07:42:07;;;;;;;;;;;;;;;13.19;68.79;101103.41;5334817;32;42482;-70
2022/11/10 07:45:09;;;;;;;;;;;;;;;12.88;69.66;101112.50;5358741;32;35789;-73
2022/11/10 07:48:11;;;;;;;;;;;;;;;13.31;69.21;101110.91;5336122;32;34547;-68
2022/11/10 07:51:15;;;;;;;;;;;;;;;13.42;68.25;101123.69;5354949;32;34390;-68
2022/11/10 07:54:17;;;;;;;;;;;;;;;13.64;68.26;101126.31;5356111;32;35585;-68
2022/11/10 07:57:19;;;;;;;;;;;;;;;13.35;69.51;101127.50;5349155;32;34541;-67
2022/11/10 08:00:23;;;;;;;;;;;;;;;13.49;68.30;101127.81;5359885;32;34229;-69
2022/11/10 08:03:25;;;;;;;;;;;;;;;13.83;67.59;101125.50;5347651;32;34214;-69
2022/11/10 08:06:27;;;;;;;;;;;;;;;13.19;69.84;101127.16;5363872;32;34286;-67
2022/11/10 08:09:35;;;;;;;;;;;;;;;13.63;68.49;101127.25;5352482;32;35403;-67
2022/11/10 08:12:41;;;;;;;;;;;;;;;12.53;72.26;101134.00;5351274;32;45023;-67
2022/11/10 08:15:43;;;;;;;;;;;;;;;13.27;70.16;101135.72;5358284;32;35007;-68
2022/11/10 08:18:47;;;;;;;;;;;;;;;13.64;68.58;101147.44;5351004;32;34859;-69
2022/11/10 08:21:49;;;;;;;;;;;;;;;13.80;68.54;101144.16;5361344;32;34328;-65
2022/11/10 08:24:51;;;;;;;;;;;;;;;13.01;69.35;101141.94;5349871;32;35325;-71
2022/11/10 08:28:00;;;;;;;;;;;;;;;13.15;69.67;101150.19;5363494;32;34196;-67
2022/11/10 08:31:02;;;;;;;;;;;;;;;13.90;67.43;101156.97;5350647;32;34588;-67
2022/11/10 08:34:07;;;;;;;;;;;;;;;13.72;67.81;101161.25;5348208;32;44495;-70
2022/11/10 08:37:09;;;;;;;;;;;;;;;14.06;66.62;101160.72;5352763;32;34413;-70
2022/11/10 08:40:11;;;;;;;;;;;;;;;13.48;67.96;101166.56;5351631;32;35528;-71
2022/11/10 08:43:13;;;;;;;;;;;;;;;13.83;68.04;101166.94;5354614;32;34327;-71
2022/11/10 08:46:15;;;;;;;;;;;;;;;14.13;66.39;101166.63;5338368;32;35516;-70
2022/11/10 08:49:17;;;;;;;;;;;;;;;14.37;65.27;101178.81;5345089;32;35132;-69
2022/11/10 08:52:19;;;;;;;;;;;;;;;14.22;65.37;101190.03;5355467;32;35506;-70
2022/11/10 08:55:21;;;;;;;;;;;;;;;13.82;65.59;101186.34;5349447;32;35605;-68
2022/11/10 08:58:23;;;;;;;;;;;;;;;14.31;64.64;101189.66;5360556;32;34324;-70
2022/11/10 09:01:25;;;;;;;;;;;;;;;14.11;63.49;101205.47;5338065;32;34345;-68
2022/11/10 09:04:26;;;;;;;;;;;;;;;14.42;63.20;101208.56;5360028;32;34295;-70
2022/11/10 09:07:29;;;;;;;;;;;;;;;14.76;62.18;101213.31;5347967;32;34349;-69
2022/11/10 09:10:33;;;;;;;;;;;;;;;14.22;63.52;101222.59;5355544;32;34404;-71
2022/11/10 09:13:35;;;;;;;;;;;;;;;14.94;61.19;101224.91;5325657;32;948070;-70
2022/11/10 09:16:37;;;;;;;;;;;;;;;15.00;60.54;101211.38;5350149;32;44460;-69
2022/11/10 09:19:39;;;;;;;;;;;;;;;14.99;60.66;101233.47;5361053;32;34123;-71
2022/11/10 09:22:41;;;;;;;;;;;;;;;13.98;62.75;101231.53;5343237;32;34131;-67
2022/11/10 09:25:47;;;;;;;;;;;;;;;14.62;61.98;101235.09;5360742;32;34197;-71
2022/11/10 09:28:50;;;;;;;;;;;;;;;14.55;61.64;101230.94;5330304;32;35586;-70
2022/11/10 09:31:52;;;;;;;;;;;;;;;14.72;61.28;101242.63;5354287;32;34656;-65
2022/11/10 09:34:54;;;;;;;;;;;;;;;14.38;62.15;101228.12;5353091;32;34397;-66
2022/11/10 09:37:56;;;;;;;;;;;;;;;14.07;64.35;101241.75;5346412;32;34248;-65
2022/11/10 09:40:59;;;;;;;;;;;;;;;14.71;62.54;101241.75;5362000;32;35810;-64
2022/11/10 09:44:04;;;;;;;;;;;;;;;13.53;65.65;101243.84;5347555;32;34389;-65
2022/11/10 09:47:10;;;;;;;;;;;;;;;14.21;64.50;101241.19;5328035;32;34437;-65
2022/11/10 09:50:14;;;;;;;;;;;;;;;14.79;61.93;101252.88;5348429;32;44437;-73
2022/11/10 09:53:17;;;;;;;;;;;;;;;14.94;62.05;101248.72;5338972;32;34311;-73
2022/11/10 09:56:26;;;;;;;;;;;;;;;14.69;62.49;101256.84;5340779;32;35907;-66
2022/11/10 09:59:29;;;;;;;;;;;;;;;13.60;67.17;101251.53;5333559;32;34110;-65
2022/11/10 10:02:33;;;;;;;;;;;;;;;13.35;68.29;101255.06;5358568;32;35854;-73
2022/11/10 10:06:01;;;;;;;;;;;;;;;13.89;66.34;101250.37;5345857;32;34746;-72
2022/11/10 10:09:15;;;;;;;;;;;;;;;14.34;63.97;101252.97;5342596;32;34364;-73
2022/11/10 10:12:24;;;;;;;;;;;;;;;14.42;64.31;101261.44;5352786;32;33577;-73
2022/11/10 10:15:29;;;;;;;;;;;;;;;14.61;63.70;101261.56;5333215;32;34573;-73
2022/11/10 10:18:44;;;;;;;;;;;;;;;15.17;62.27;101250.34;5342545;32;34568;-69
2022/11/10 10:21:49;;;;;;;;;;;;;;;14.86;62.91;101261.41;5339552;32;45067;-74
2022/11/10 10:24:52;;;;;;;;;;;;;;;15.21;62.41;101264.31;5356928;32;34304;-73
2022/11/10 10:28:06;;;;;;;;;;;;;;;16.48;57.75;101261.84;5357763;32;34625;-74
2022/11/10 10:31:25;;;;;;;;;;;;;;;15.90;59.04;101260.22;5320771;32;44536;-70
2022/11/10 10:34:27;;;;;;;;;;;;;;;16.32;57.87;101264.41;5355734;32;35341;-72
2022/11/10 10:37:32;;;;;;;;;;;;;;;15.91;58.67;101261.13;5346453;32;34307;-70
2022/11/10 10:40:34;;;;;;;;;;;;;;;16.15;58.18;101262.56;5358707;32;34199;-67
2022/11/10 10:43:37;;;;;;;;;;;;;;;16.02;57.69;101256.12;5346954;32;39001;-68
2022/11/10 10:46:47;;;;;;;;;;;;;;;16.32;57.65;101260.91;5304539;32;34581;-68
2022/11/10 10:49:49;;;;;;;;;;;;;;;16.35;57.23;101260.75;5356221;32;35348;-73
2022/11/10 10:53:11;;;;;;;;;;;;;;;16.03;58.69;101263.16;5334307;32;34401;-73
2022/11/10 10:56:18;;;;;;;;;;;;;;;16.39;57.10;101270.28;5348574;32;44483;-73
2022/11/10 10:59:20;;;;;;;;;;;;;;;16.31;57.28;101270.66;5350293;32;34247;-73
2022/11/10 11:02:29;;;;;;;;;;;;;;;15.12;60.50;101279.66;5346773;32;34638;-76
2022/11/10 11:05:31;;;;;;;;;;;;;;;16.18;58.19;101273.03;5358660;32;33632;-68
2022/11/10 11:08:33;;;;;;;;;;;;;;;16.91;55.33;101263.22;5335232;32;35310;-70
2022/11/10 11:11:37;;;;;;;;;;;;;;;16.25;56.96;101270.97;5343867;32;37274;-69
2022/11/10 11:14:39;;;;;;;;;;;;;;;16.65;56.42;101269.84;5327972;32;44546;-71
2022/11/10 11:17:59;;;;;;;;;;;;;;;16.88;55.77;101270.50;5351523;32;34311;-68
2022/11/10 11:21:05;;;;;;;;;;;;;;;17.12;55.27;101277.19;5353115;32;34718;-70
2022/11/10 11:24:19;;;;;;;;;;;;;;;17.02;54.87;101278.63;5345359;32;44445;-68
2022/11/10 11:27:30;;;;;;;;;;;;;;;16.56;56.23;101280.94;5358542;32;34390;-70
2022/11/10 11:30:50;;;;;;;;;;;;;;;17.46;54.26;101288.72;5350121;32;35520;-67
2022/11/10 11:34:11;;;;;;;;;;;;;;;16.61;56.72;101297.44;5346292;32;34395;-66
2022/11/10 11:37:20;;;;;;;;;;;;;;;15.49;59.88;101296.56;5359474;32;44566;-67
2022/11/10 11:40:24;;;;;;;;;;;;;;;16.35;56.94;101297.87;5328382;32;34545;-66
2022/11/10 11:43:36;;;;;;;;;;;;;;;16.24;56.91;101298.41;5346027;32;36346;-65
2022/11/10 11:46:58;;;;;;;;;;;;;;;15.53;58.98;101308.78;5327158;32;47248;-70
2022/11/10 11:50:07;;;;;;;;;;;;;;;15.41;59.02;101311.97;5351088;32;35277;-71
2022/11/10 11:53:27;;;;;;;;;;;;;;;15.14;60.28;101314.91;5337888;32;44510;-64
2022/11/10 11:56:30;;;;;;;;;;;;;;;14.81;60.89;101316.31;5346331;32;34319;-68
2022/11/10 11:59:32;;;;;;;;;;;;;;;14.84;61.12;101317.06;5343041;32;35413;-69
2022/11/10 12:03:10;;;;;;;;;;;;;;;14.35;63.02;101307.59;5351643;32;34310;-69
2022/11/10 12:06:31;;;;;;;;;;;;;;;14.53;63.18;101322.75;5257064;32;34936;-71
2022/11/10 12:09:39;;;;;;;;;;;;;;;15.05;61.70;101325.00;5348396;32;35196;-75
2022/11/10 12:12:44;;;;;;;;;;;;;;;14.27;63.58;101318.47;5336551;32;44880;-72
2022/11/10 12:15:46;;;;;;;;;;;;;;;14.00;64.52;101320.41;5342040;32;35366;-74
2022/11/10 12:18:57;;;;;;;;;;;;;;;14.57;63.98;101327.00;5344273;32;34299;-72
2022/11/10 12:22:18;;;;;;;;;;;;;;;14.74;62.66;101326.28;5344384;32;36131;-71
2022/11/10 12:25:49;;;;;;;;;;;;;;;14.61;63.38;101328.56;5357934;32;34324;-64
2022/11/10 12:29:17;;;;;;;;;;;;;;;14.45;63.88;101335.41;5287151;32;34265;-70
2022/11/10 12:32:23;;;;;;;;;;;;;;;13.73;66.89;101337.31;5338775;32;36277;-69
2022/11/10 12:35:27;;;;;;;;;;;;;;;14.41;64.07;101338.22;5357068;32;34885;-72
2022/11/10 12:38:38;;;;;;;;;;;;;;;14.66;63.10;101351.34;5330957;32;34461;-70
2022/11/10 12:41:58;;;;;;;;;;;;;;;14.85;61.97;101353.19;5361304;32;44506;-71
2022/11/10 12:45:01;;;;;;;;;;;;;;;14.94;62.32;101345.78;5349367;32;34396;-71
2022/11/10 12:48:03;;;;;;;;;;;;;;;15.25;61.71;101351.47;5329006;32;34309;-72
2022/11/10 12:51:16;;;;;;;;;;;;;;;15.29;62.74;101361.03;5338145;32;34575;-71
2022/11/10 12:54:18;;;;;;;;;;;;;;;14.54;63.20;101352.69;5340019;32;34728;-69
2022/11/10 12:57:21;;;;;;;;;;;;;;;15.10;62.37;101368.03;5357162;32;36230;-73
2022/11/10 13:00:24;;;;;;;;;;;;;;;14.93;63.41;101371.38;5326932;32;34061;-74
2022/11/10 13:03:36;;;;;;;;;;;;;;;14.85;63.97;101366.41;5357505;32;34162;-70
2022/11/10 13:06:41;;;;;;;;;;;;;;;14.97;62.58;101369.47;5331393;32;43931;-70
2022/11/10 13:09:43;;;;;;;;;;;;;;;14.32;64.62;101364.12;5331831;32;36340;-72
2022/11/10 13:12:59;;;;;;;;;;;;;;;14.87;62.51;101359.25;5349187;32;35524;-74
2022/11/10 13:16:00;;;;;;;;;;;;;;;14.88;63.20;101365.44;5334821;32;34391;-70
2022/11/10 13:19:03;;;;;;;;;;;;;;;14.45;63.56;101359.19;5348248;32;34524;-72
2022/11/10 13:22:08;;;;;;;;;;;;;;;14.28;63.77;101362.50;5323197;32;39131;-72
2022/11/10 13:25:28;;;;;;;;;;;;;;;13.78;66.08;101369.69;5354916;32;46598;-76
2022/11/10 13:28:48;;;;;;;;;;;;;;;13.77;66.48;101375.91;5351636;32;35254;-70
2022/11/10 13:31:52;;;;;;;;;;;;;;;14.45;63.46;101369.78;5370510;32;34449;-73
2022/11/10 13:35:18;;;;;;;;;;;;;;;14.81;62.29;101377.19;5361365;32;35601;-72
2022/11/10 13:38:35;;;;;;;;;;;;;;;14.90;62.06;101375.03;5348192;32;35383;-72
2022/11/10 13:41:41;;;;;;;;;;;;;;;14.84;62.17;101382.37;5350562;32;44696;-69
2022/11/10 13:44:46;;;;;;;;;;;;;;;14.97;60.99;101382.72;5347658;32;35580;-73
2022/11/10 13:47:50;;;;;;;;;;;;;;;15.31;60.48;101384.78;5316508;32;34698;-71
2022/11/10 13:50:54;;;;;;;;;;;;;;;15.05;60.55;101381.47;5361819;32;35689;-69
2022/11/10 13:53:59;;;;;;;;;;;;;;;14.94;61.68;101390.78;5340134;32;34352;-71
2022/11/10 13:57:11;;;;;;;;;;;;;;;15.61;59.07;101399.37;5353625;32;34220;-70
2022/11/10 14:00:13;;;;;;;;;;;;;;;15.06;60.53;101399.06;5356359;32;44689;-72
2022/11/10 14:03:34;;;;;;;;;;;;;;;14.78;61.30;101391.41;5350239;32;34564;-71
2022/11/10 14:06:43;;;;;;;;;;;;;;;15.03;60.60;101393.06;5365115;32;44679;-70
2022/11/10 14:09:47;;;;;;;;;;;;;;;14.50;62.66;101393.44;5333823;32;35800;-70
2022/11/10 14:12:50;;;;;;;;;;;;;;;15.06;61.04;101399.06;5340299;32;34170;-73
2022/11/10 14:15:53;;;;;;;;;;;;;;;15.44;59.79;101404.53;5342456;32;34347;-72
2022/11/10 14:18:59;;;;;;;;;;;;;;;15.57;59.09;101408.38;5345399;32;34158;-71
2022/11/10 14:22:20;;;;;;;;;;;;;;;15.47;59.54;101412.38;5350334;32;34335;-70
2022/11/10 14:25:28;;;;;;;;;;;;;;;15.54;59.07;101412.97;5345808;32;34878;-71
2022/11/10 14:28:31;;;;;;;;;;;;;;;14.60;61.90;101422.09;5361803;32;34375;-67
2022/11/10 14:31:34;;;;;;;;;;;;;;;14.30;62.14;101431.22;5343328;32;34324;-68
2022/11/10 14:34:40;;;;;;;;;;;;;;;14.16;63.99;101429.06;5336848;32;42769;-72
2022/11/10 14:37:42;;;;;;;;;;;;;;;14.89;61.61;101430.69;5346882;32;36657;-73
2022/11/10 14:40:44;;;;;;;;;;;;;;;14.59;62.54;101423.03;5351723;32;35628;-67
2022/11/10 14:44:04;;;;;;;;;;;;;;;14.54;62.86;101435.56;5358261;32;35535;-72
2022/11/10 14:47:14;;;;;;;;;;;;;;;14.82;61.86;101438.00;5330779;32;44381;-74
2022/11/10 14:50:18;;;;;;;;;;;;;;;14.51;62.91;101441.00;5350463;32;35614;-68
2022/11/10 14:53:30;;;;;;;;;;;;;;;15.51;59.93;101437.78;5360479;32;34197;-75
2022/11/10 14:56:34;;;;;;;;;;;;;;;15.42;59.14;101436.41;5336365;32;35657;-66
2022/11/10 14:59:36;;;;;;;;;;;;;;;15.39;59.41;101435.66;5357747;32;36340;-67
2022/11/10 15:02:38;;;;;;;;;;;;;;;13.83;64.57;101437.31;5342147;32;44507;-69
2022/11/10 15:05:40;;;;;;;;;;;;;;;14.30;63.46;101442.66;5348760;32;34329;-66
2022/11/10 15:08:42;;;;;;;;;;;;;;;14.40;63.06;101440.50;5346883;32;34381;-67
2022/11/10 15:11:48;;;;;;;;;;;;;;;15.27;60.70;101441.50;5341235;32;34341;-67
2022/11/10 15:14:57;;;;;;;;;;;;;;;14.30;63.23;101455.00;5343122;32;34354;-66
2022/11/10 15:17:59;;;;;;;;;;;;;;;14.83;62.01;101452.97;5345745;32;35781;-66
2022/11/10 15:21:02;;;;;;;;;;;;;;;15.23;60.77;101455.78;5349696;32;36038;-69
2022/11/10 15:24:04;;;;;;;;;;;;;;;14.31;62.72;101459.38;5330221;32;36675;-66
2022/11/10 15:27:09;;;;;;;;;;;;;;;14.89;61.65;101451.84;5317201;32;34398;-65
2022/11/10 15:30:22;;;;;;;;;;;;;;;14.30;63.87;101468.25;5333359;32;44559;-75
2022/11/10 15:33:25;;;;;;;;;;;;;;;14.31;64.07;101468.16;5330172;32;34397;-66
2022/11/10 15:36:30;;;;;;;;;;;;;;;15.07;61.89;101477.59;5353404;32;35497;-65
2022/11/10 15:39:32;;;;;;;;;;;;;;;14.87;62.55;101475.72;5340897;32;34246;-74
2022/11/10 15:42:34;;;;;;;;;;;;;;;14.15;63.92;101490.78;5355825;32;35203;-75
2022/11/10 15:45:36;;;;;;;;;;;;;;;14.68;63.22;101480.00;5340663;32;44600;-66
2022/11/10 15:48:43;;;;;;;;;;;;;;;14.25;64.53;101488.69;5319208;32;34519;-73
2022/11/10 15:51:45;;;;;;;;;;;;;;;14.79;63.13;101492.84;5360070;32;34880;-74
2022/11/10 15:54:47;;;;;;;;;;;;;;;14.08;65.07;101510.44;5329945;32;34442;-66
2022/11/10 15:57:49;;;;;;;;;;;;;;;14.08;65.79;101515.72;5359173;32;35503;-75